sensor_id;sensor_type;location;lat;lon;timestamp;temperature;humidity
7325;DHT22;3703;48.016;7.802;2023-08-20T00:02:13;26.40;99.90
7325;DHT22;3703;48.016;7.802;2023-08-20T00:04:59;26.40;99.90
7325;DHT22;3703;48.016;7.802;2023-08-20T00:07:46;26.30;99.90
7325;DHT22;3703;48.016;7.802;2023-08-20T00:10:33;26.30;99.90
7325;DHT22;3703;48.016;7.802;2023-08-20T00:13:19;26.40;99.90
7325;DHT22;3703;48.016;7.802;2023-08-20T00:16:06;26.30;99.90
7325;DHT22;3703;48.016;7.802;2023-08-20T00:18:53;26.20;99.90
7325;DHT22;3703;48.016;7.802;2023-08-20T00:21:41;25.70;99.90
7325;DHT22;3703;48.016;7.802;2023-08-20T00:24:28;25.90;99.90
7325;DHT22;3703;48.016;7.802;2023-08-20T00:27:15;26.30;99.90
7325;DHT22;3703;48.016;7.802;2023-08-20T00:30:01;26.30;99.90
7325;DHT22;3703;48.016;7.802;2023-08-20T00:32:48;26.30;99.90
7325;DHT22;3703;48.016;7.802;2023-08-20T00:35:33;26.30;99.90
7325;DHT22;3703;48.016;7.802;2023-08-20T00:38:19;26.20;99.90
7325;DHT22;3703;48.016;7.802;2023-08-20T00:41:05;26.30;99.90
7325;DHT22;3703;48.016;7.802;2023-08-20T00:43:52;26.20;99.90
7325;DHT22;3703;48.016;7.802;2023-08-20T00:46:38;26.20;99.90
7325;DHT22;3703;48.016;7.802;2023-08-20T00:49:24;26.10;99.90
7325;DHT22;3703;48.016;7.802;2023-08-20T00:52:12;26.00;99.90
7325;DHT22;3703;48.016;7.802;2023-08-20T00:54:59;25.90;99.90
7325;DHT22;3703;48.016;7.802;2023-08-20T00:57:45;26.00;99.90
7325;DHT22;3703;48.016;7.802;2023-08-20T01:00:32;26.00;99.90
7325;DHT22;3703;48.016;7.802;2023-08-20T01:03:18;25.80;99.90
7325;DHT22;3703;48.016;7.802;2023-08-20T01:06:12;25.80;99.90
7325;DHT22;3703;48.016;7.802;2023-08-20T01:09:08;26.00;99.90
7325;DHT22;3703;48.016;7.802;2023-08-20T01:12:00;26.00;99.90
7325;DHT22;3703;48.016;7.802;2023-08-20T01:14:48;25.80;99.90
7325;DHT22;3703;48.016;7.802;2023-08-20T01:17:35;25.80;99.90
7325;DHT22;3703;48.016;7.802;2023-08-20T01:20:25;26.00;99.90
7325;DHT22;3703;48.016;7.802;2023-08-20T01:23:39;26.10;99.90
7325;DHT22;3703;48.016;7.802;2023-08-20T01:26:56;25.90;99.90
7325;DHT22;3703;48.016;7.802;2023-08-20T01:29:50;25.80;99.90
7325;DHT22;3703;48.016;7.802;2023-08-20T01:32:37;25.50;99.90
7325;DHT22;3703;48.016;7.802;2023-08-20T01:35:26;25.70;99.90
7325;DHT22;3703;48.016;7.802;2023-08-20T01:38:12;25.50;99.90
7325;DHT22;3703;48.016;7.802;2023-08-20T01:40:58;25.50;99.90
7325;DHT22;3703;48.016;7.802;2023-08-20T01:43:44;25.60;99.90
7325;DHT22;3703;48.016;7.802;2023-08-20T01:46:31;25.70;99.90
7325;DHT22;3703;48.016;7.802;2023-08-20T01:49:17;25.30;99.90
7325;DHT22;3703;48.016;7.802;2023-08-20T01:52:03;25.10;1.00
7325;DHT22;3703;48.016;7.802;2023-08-20T01:54:49;25.30;1.00
7325;DHT22;3703;48.016;7.802;2023-08-20T01:57:35;25.50;99.90
7325;DHT22;3703;48.016;7.802;2023-08-20T02:00:21;25.40;99.90
7325;DHT22;3703;48.016;7.802;2023-08-20T02:03:08;25.40;99.90
7325;DHT22;3703;48.016;7.802;2023-08-20T02:05:54;25.50;99.90
7325;DHT22;3703;48.016;7.802;2023-08-20T02:08:39;25.50;99.90
7325;DHT22;3703;48.016;7.802;2023-08-20T02:11:25;25.50;99.90
7325;DHT22;3703;48.016;7.802;2023-08-20T02:14:11;25.30;99.90
7325;DHT22;3703;48.016;7.802;2023-08-20T02:16:57;25.50;99.90
7325;DHT22;3703;48.016;7.802;2023-08-20T02:19:44;25.20;99.90
7325;DHT22;3703;48.016;7.802;2023-08-20T02:22:30;25.40;99.90
7325;DHT22;3703;48.016;7.802;2023-08-20T02:25:15;25.50;99.90
7325;DHT22;3703;48.016;7.802;2023-08-20T02:28:01;25.50;99.90
7325;DHT22;3703;48.016;7.802;2023-08-20T02:30:47;25.60;99.90
7325;DHT22;3703;48.016;7.802;2023-08-20T02:33:33;25.70;99.90
7325;DHT22;3703;48.016;7.802;2023-08-20T02:36:20;25.50;99.90
7325;DHT22;3703;48.016;7.802;2023-08-20T02:39:06;25.40;99.90
7325;DHT22;3703;48.016;7.802;2023-08-20T02:41:52;24.80;99.90
7325;DHT22;3703;48.016;7.802;2023-08-20T02:47:26;25.20;99.90
7325;DHT22;3703;48.016;7.802;2023-08-20T02:50:12;25.70;1.00
7325;DHT22;3703;48.016;7.802;2023-08-20T02:52:58;25.30;1.00
7325;DHT22;3703;48.016;7.802;2023-08-20T02:55:44;25.40;99.90
7325;DHT22;3703;48.016;7.802;2023-08-20T02:58:30;25.40;99.90
7325;DHT22;3703;48.016;7.802;2023-08-20T03:01:20;25.50;99.90
7325;DHT22;3703;48.016;7.802;2023-08-20T03:04:06;25.30;99.90
7325;DHT22;3703;48.016;7.802;2023-08-20T03:06:52;25.40;99.90
7325;DHT22;3703;48.016;7.802;2023-08-20T03:09:39;25.40;99.90
7325;DHT22;3703;48.016;7.802;2023-08-20T03:12:25;25.50;99.90
7325;DHT22;3703;48.016;7.802;2023-08-20T03:15:11;25.40;99.90
7325;DHT22;3703;48.016;7.802;2023-08-20T03:17:56;25.40;99.90
7325;DHT22;3703;48.016;7.802;2023-08-20T03:20:42;25.40;99.90
7325;DHT22;3703;48.016;7.802;2023-08-20T03:23:28;25.10;99.90
7325;DHT22;3703;48.016;7.802;2023-08-20T03:26:15;24.40;1.00
7325;DHT22;3703;48.016;7.802;2023-08-20T03:29:01;24.40;1.00
7325;DHT22;3703;48.016;7.802;2023-08-20T03:31:48;24.50;1.00
7325;DHT22;3703;48.016;7.802;2023-08-20T03:34:34;24.80;1.00
7325;DHT22;3703;48.016;7.802;2023-08-20T03:37:19;24.90;1.00
7325;DHT22;3703;48.016;7.802;2023-08-20T03:40:06;24.80;1.00
7325;DHT22;3703;48.016;7.802;2023-08-20T03:42:54;24.80;1.00
7325;DHT22;3703;48.016;7.802;2023-08-20T03:45:39;25.00;1.00
7325;DHT22;3703;48.016;7.802;2023-08-20T03:48:25;25.10;99.90
7325;DHT22;3703;48.016;7.802;2023-08-20T03:51:11;25.10;99.90
7325;DHT22;3703;48.016;7.802;2023-08-20T03:53:57;25.10;1.00
7325;DHT22;3703;48.016;7.802;2023-08-20T03:56:42;25.10;1.00
7325;DHT22;3703;48.016;7.802;2023-08-20T03:59:30;25.00;1.00
7325;DHT22;3703;48.016;7.802;2023-08-20T04:02:16;25.00;1.00
7325;DHT22;3703;48.016;7.802;2023-08-20T04:05:02;25.00;1.00
7325;DHT22;3703;48.016;7.802;2023-08-20T04:07:48;25.00;1.00
7325;DHT22;3703;48.016;7.802;2023-08-20T04:10:34;25.00;1.00
7325;DHT22;3703;48.016;7.802;2023-08-20T04:13:19;24.90;1.00
7325;DHT22;3703;48.016;7.802;2023-08-20T04:16:06;24.90;1.00
7325;DHT22;3703;48.016;7.802;2023-08-20T04:18:52;25.00;1.00
7325;DHT22;3703;48.016;7.802;2023-08-20T04:21:39;25.10;1.00
7325;DHT22;3703;48.016;7.802;2023-08-20T04:24:24;25.10;1.00
7325;DHT22;3703;48.016;7.802;2023-08-20T04:27:10;25.00;1.00
7325;DHT22;3703;48.016;7.802;2023-08-20T04:29:56;25.20;1.00
7325;DHT22;3703;48.016;7.802;2023-08-20T04:32:43;25.10;1.00
7325;DHT22;3703;48.016;7.802;2023-08-20T04:35:29;25.00;1.00
7325;DHT22;3703;48.016;7.802;2023-08-20T04:38:15;24.70;1.00
7325;DHT22;3703;48.016;7.802;2023-08-20T04:41:01;24.80;1.00
7325;DHT22;3703;48.016;7.802;2023-08-20T04:43:47;26.00;1.00
7325;DHT22;3703;48.016;7.802;2023-08-20T04:46:32;24.50;1.00
7325;DHT22;3703;48.016;7.802;2023-08-20T04:49:19;24.90;1.00
7325;DHT22;3703;48.016;7.802;2023-08-20T04:52:05;25.00;1.00
7325;DHT22;3703;48.016;7.802;2023-08-20T04:54:51;25.50;1.00
7325;DHT22;3703;48.016;7.802;2023-08-20T04:57:37;24.80;1.00
7325;DHT22;3703;48.016;7.802;2023-08-20T05:00:23;24.90;1.00
7325;DHT22;3703;48.016;7.802;2023-08-20T05:03:09;25.20;1.00
7325;DHT22;3703;48.016;7.802;2023-08-20T05:05:56;25.10;1.00
7325;DHT22;3703;48.016;7.802;2023-08-20T05:08:43;25.00;1.00
7325;DHT22;3703;48.016;7.802;2023-08-20T05:11:28;25.00;1.00
7325;DHT22;3703;48.016;7.802;2023-08-20T05:14:17;25.00;1.00
7325;DHT22;3703;48.016;7.802;2023-08-20T05:17:02;24.90;1.00
7325;DHT22;3703;48.016;7.802;2023-08-20T05:19:48;24.90;1.00
7325;DHT22;3703;48.016;7.802;2023-08-20T05:22:35;25.00;1.00
7325;DHT22;3703;48.016;7.802;2023-08-20T05:25:21;25.10;1.00
7325;DHT22;3703;48.016;7.802;2023-08-20T05:28:07;25.10;1.00
7325;DHT22;3703;48.016;7.802;2023-08-20T05:30:55;24.40;1.00
7325;DHT22;3703;48.016;7.802;2023-08-20T05:33:41;24.20;1.00
7325;DHT22;3703;48.016;7.802;2023-08-20T05:36:27;24.30;1.00
7325;DHT22;3703;48.016;7.802;2023-08-20T05:39:14;24.60;1.00
7325;DHT22;3703;48.016;7.802;2023-08-20T05:42:00;24.70;1.00
7325;DHT22;3703;48.016;7.802;2023-08-20T05:44:45;24.90;1.00
7325;DHT22;3703;48.016;7.802;2023-08-20T05:47:31;25.20;1.00
7325;DHT22;3703;48.016;7.802;2023-08-20T05:50:17;25.10;1.00
7325;DHT22;3703;48.016;7.802;2023-08-20T05:53:03;24.70;1.00
7325;DHT22;3703;48.016;7.802;2023-08-20T05:55:50;24.50;1.00
7325;DHT22;3703;48.016;7.802;2023-08-20T05:58:36;24.70;1.00
7325;DHT22;3703;48.016;7.802;2023-08-20T06:01:22;24.80;1.00
7325;DHT22;3703;48.016;7.802;2023-08-20T06:04:08;25.10;1.00
7325;DHT22;3703;48.016;7.802;2023-08-20T06:06:53;25.60;1.00
7325;DHT22;3703;48.016;7.802;2023-08-20T06:09:39;25.80;1.00
7325;DHT22;3703;48.016;7.802;2023-08-20T06:12:26;25.90;99.90
7325;DHT22;3703;48.016;7.802;2023-08-20T06:15:13;25.10;99.90
7325;DHT22;3703;48.016;7.802;2023-08-20T06:17:59;25.80;99.90
7325;DHT22;3703;48.016;7.802;2023-08-20T06:20:44;25.50;99.90
7325;DHT22;3703;48.016;7.802;2023-08-20T06:23:30;25.10;1.00
7325;DHT22;3703;48.016;7.802;2023-08-20T06:26:15;24.90;1.00
7325;DHT22;3703;48.016;7.802;2023-08-20T06:29:03;24.90;1.00
7325;DHT22;3703;48.016;7.802;2023-08-20T06:31:49;24.90;1.00
7325;DHT22;3703;48.016;7.802;2023-08-20T06:34:35;25.40;1.00
7325;DHT22;3703;48.016;7.802;2023-08-20T06:37:21;25.70;1.00
7325;DHT22;3703;48.016;7.802;2023-08-20T06:40:08;25.90;1.00
7325;DHT22;3703;48.016;7.802;2023-08-20T06:42:54;26.40;99.90
7325;DHT22;3703;48.016;7.802;2023-08-20T06:45:41;26.80;99.90
7325;DHT22;3703;48.016;7.802;2023-08-20T06:48:27;27.10;99.90
7325;DHT22;3703;48.016;7.802;2023-08-20T06:51:13;27.40;99.90
7325;DHT22;3703;48.016;7.802;2023-08-20T06:53:59;27.00;99.90
7325;DHT22;3703;48.016;7.802;2023-08-20T06:56:45;27.20;99.90
7325;DHT22;3703;48.016;7.802;2023-08-20T06:59:30;27.60;99.90
7325;DHT22;3703;48.016;7.802;2023-08-20T07:02:17;27.90;90.10
7325;DHT22;3703;48.016;7.802;2023-08-20T07:05:04;27.80;70.10
7325;DHT22;3703;48.016;7.802;2023-08-20T07:07:50;28.10;1.00
7325;DHT22;3703;48.016;7.802;2023-08-20T07:10:36;28.10;1.00
7325;DHT22;3703;48.016;7.802;2023-08-20T07:13:22;27.60;99.90
7325;DHT22;3703;48.016;7.802;2023-08-20T07:16:08;27.60;99.90
7325;DHT22;3703;48.016;7.802;2023-08-20T07:18:56;28.10;99.90
7325;DHT22;3703;48.016;7.802;2023-08-20T07:21:41;28.20;99.90
7325;DHT22;3703;48.016;7.802;2023-08-20T07:24:27;28.20;99.90
7325;DHT22;3703;48.016;7.802;2023-08-20T07:27:14;28.20;95.00
7325;DHT22;3703;48.016;7.802;2023-08-20T07:29:59;28.50;1.00
7325;DHT22;3703;48.016;7.802;2023-08-20T07:32:45;28.40;1.00
7325;DHT22;3703;48.016;7.802;2023-08-20T07:35:32;27.90;45.10
7325;DHT22;3703;48.016;7.802;2023-08-20T07:38:20;27.70;99.90
7325;DHT22;3703;48.016;7.802;2023-08-20T07:41:05;28.20;99.90
7325;DHT22;3703;48.016;7.802;2023-08-20T07:43:51;27.80;99.90
7325;DHT22;3703;48.016;7.802;2023-08-20T07:46:37;27.90;99.90
7325;DHT22;3703;48.016;7.802;2023-08-20T07:49:23;28.20;99.90
7325;DHT22;3703;48.016;7.802;2023-08-20T07:52:10;28.40;15.70
7325;DHT22;3703;48.016;7.802;2023-08-20T07:54:56;27.30;99.90
7325;DHT22;3703;48.016;7.802;2023-08-20T07:57:41;26.50;1.00
7325;DHT22;3703;48.016;7.802;2023-08-20T08:00:27;26.90;1.00
7325;DHT22;3703;48.016;7.802;2023-08-20T08:03:13;26.70;1.00
7325;DHT22;3703;48.016;7.802;2023-08-20T08:06:00;26.80;1.00
7325;DHT22;3703;48.016;7.802;2023-08-20T08:08:47;27.30;1.00
7325;DHT22;3703;48.016;7.802;2023-08-20T08:11:33;27.80;99.90
7325;DHT22;3703;48.016;7.802;2023-08-20T08:14:19;28.20;99.90
7325;DHT22;3703;48.016;7.802;2023-08-20T08:17:05;28.30;99.90
7325;DHT22;3703;48.016;7.802;2023-08-20T08:19:51;28.60;99.90
7325;DHT22;3703;48.016;7.802;2023-08-20T08:22:38;28.90;1.00
7325;DHT22;3703;48.016;7.802;2023-08-20T08:25:25;28.90;1.00
7325;DHT22;3703;48.016;7.802;2023-08-20T08:28:11;29.10;1.00
7325;DHT22;3703;48.016;7.802;2023-08-20T08:30:38;28.80;43.00
7325;DHT22;3703;48.016;7.802;2023-08-20T08:33:24;27.90;99.90
7325;DHT22;3703;48.016;7.802;2023-08-20T08:36:10;27.70;99.90
7325;DHT22;3703;48.016;7.802;2023-08-20T08:38:55;27.80;99.90
7325;DHT22;3703;48.016;7.802;2023-08-20T08:41:43;28.30;99.90
7325;DHT22;3703;48.016;7.802;2023-08-20T08:44:31;29.00;99.90
7325;DHT22;3703;48.016;7.802;2023-08-20T08:47:18;29.40;72.00
7325;DHT22;3703;48.016;7.802;2023-08-20T08:50:05;29.10;3.30
7325;DHT22;3703;48.016;7.802;2023-08-20T08:52:54;29.00;43.30
7325;DHT22;3703;48.016;7.802;2023-08-20T08:55:40;28.80;6.80
7325;DHT22;3703;48.016;7.802;2023-08-20T08:58:27;29.30;1.00
7325;DHT22;3703;48.016;7.802;2023-08-20T09:01:13;29.60;1.00
7325;DHT22;3703;48.016;7.802;2023-08-20T09:03:59;29.70;99.90
7325;DHT22;3703;48.016;7.802;2023-08-20T09:06:45;30.00;1.00
7325;DHT22;3703;48.016;7.802;2023-08-20T09:09:31;29.90;99.90
7325;DHT22;3703;48.016;7.802;2023-08-20T09:12:19;29.90;1.00
7325;DHT22;3703;48.016;7.802;2023-08-20T09:15:11;30.20;60.70
7325;DHT22;3703;48.016;7.802;2023-08-20T09:17:57;30.40;1.00
7325;DHT22;3703;48.016;7.802;2023-08-20T09:20:42;30.00;99.90
7325;DHT22;3703;48.016;7.802;2023-08-20T09:23:29;29.80;99.90
7325;DHT22;3703;48.016;7.802;2023-08-20T09:26:16;30.00;1.00
7325;DHT22;3703;48.016;7.802;2023-08-20T09:32:00;30.70;1.00
7325;DHT22;3703;48.016;7.802;2023-08-20T09:34:48;30.20;1.00
7325;DHT22;3703;48.016;7.802;2023-08-20T09:37:34;29.80;99.90
7325;DHT22;3703;48.016;7.802;2023-08-20T09:40:20;29.90;81.60
7325;DHT22;3703;48.016;7.802;2023-08-20T09:43:07;30.20;65.20
7325;DHT22;3703;48.016;7.802;2023-08-20T09:45:55;30.00;1.00
7325;DHT22;3703;48.016;7.802;2023-08-20T09:48:44;30.40;99.90
7325;DHT22;3703;48.016;7.802;2023-08-20T09:51:33;30.80;99.90
7325;DHT22;3703;48.016;7.802;2023-08-20T09:54:26;31.00;1.00
7325;DHT22;3703;48.016;7.802;2023-08-20T09:57:23;31.20;1.00
7325;DHT22;3703;48.016;7.802;2023-08-20T10:00:13;31.80;1.00
7325;DHT22;3703;48.016;7.802;2023-08-20T10:03:02;32.40;1.00
7325;DHT22;3703;48.016;7.802;2023-08-20T10:05:50;32.40;1.00
7325;DHT22;3703;48.016;7.802;2023-08-20T10:08:36;32.70;99.90
7325;DHT22;3703;48.016;7.802;2023-08-20T10:11:23;32.70;99.90
7325;DHT22;3703;48.016;7.802;2023-08-20T10:14:09;32.90;99.90
7325;DHT22;3703;48.016;7.802;2023-08-20T10:16:55;33.00;99.90
7325;DHT22;3703;48.016;7.802;2023-08-20T10:19:42;33.10;99.90
7325;DHT22;3703;48.016;7.802;2023-08-20T10:22:35;33.20;1.00
7325;DHT22;3703;48.016;7.802;2023-08-20T10:25:23;33.10;1.00
7325;DHT22;3703;48.016;7.802;2023-08-20T10:28:19;33.00;1.00
7325;DHT22;3703;48.016;7.802;2023-08-20T10:31:08;32.90;1.00
7325;DHT22;3703;48.016;7.802;2023-08-20T10:33:56;33.10;1.00
7325;DHT22;3703;48.016;7.802;2023-08-20T10:36:43;32.90;1.00
7325;DHT22;3703;48.016;7.802;2023-08-20T10:39:32;33.40;1.00
7325;DHT22;3703;48.016;7.802;2023-08-20T10:42:27;33.40;1.00
7325;DHT22;3703;48.016;7.802;2023-08-20T10:45:13;33.20;1.00
7325;DHT22;3703;48.016;7.802;2023-08-20T10:47:59;33.30;1.00
7325;DHT22;3703;48.016;7.802;2023-08-20T10:50:45;32.90;99.90
7325;DHT22;3703;48.016;7.802;2023-08-20T10:56:21;33.70;42.60
7325;DHT22;3703;48.016;7.802;2023-08-20T10:59:08;33.60;99.90
7325;DHT22;3703;48.016;7.802;2023-08-20T11:01:56;33.70;60.20
7325;DHT22;3703;48.016;7.802;2023-08-20T11:04:43;33.80;99.90
7325;DHT22;3703;48.016;7.802;2023-08-20T11:07:29;34.10;99.90
7325;DHT22;3703;48.016;7.802;2023-08-20T11:10:19;34.50;1.00
7325;DHT22;3703;48.016;7.802;2023-08-20T11:13:08;34.50;1.00
7325;DHT22;3703;48.016;7.802;2023-08-20T11:15:54;34.40;1.00
7325;DHT22;3703;48.016;7.802;2023-08-20T11:18:40;34.40;1.00
7325;DHT22;3703;48.016;7.802;2023-08-20T11:21:25;34.60;99.90
7325;DHT22;3703;48.016;7.802;2023-08-20T11:24:13;35.00;1.00
7325;DHT22;3703;48.016;7.802;2023-08-20T11:26:59;35.40;99.90
7325;DHT22;3703;48.016;7.802;2023-08-20T11:29:46;35.20;99.90
7325;DHT22;3703;48.016;7.802;2023-08-20T11:32:33;35.30;62.50
7325;DHT22;3703;48.016;7.802;2023-08-20T11:35:19;35.60;8.90
7325;DHT22;3703;48.016;7.802;2023-08-20T11:38:06;35.80;1.00
7325;DHT22;3703;48.016;7.802;2023-08-20T11:40:52;35.90;1.00
7325;DHT22;3703;48.016;7.802;2023-08-20T11:43:37;36.10;26.90
7325;DHT22;3703;48.016;7.802;2023-08-20T11:46:27;36.10;1.00
7325;DHT22;3703;48.016;7.802;2023-08-20T11:49:14;36.30;1.00
7325;DHT22;3703;48.016;7.802;2023-08-20T11:52:00;36.30;1.00
7325;DHT22;3703;48.016;7.802;2023-08-20T11:54:45;36.20;1.00
7325;DHT22;3703;48.016;7.802;2023-08-20T11:57:32;36.00;1.00
7325;DHT22;3703;48.016;7.802;2023-08-20T12:00:24;36.00;1.00
7325;DHT22;3703;48.016;7.802;2023-08-20T12:03:12;36.10;1.00
7325;DHT22;3703;48.016;7.802;2023-08-20T12:05:58;36.20;1.00
7325;DHT22;3703;48.016;7.802;2023-08-20T12:08:44;36.00;1.00
7325;DHT22;3703;48.016;7.802;2023-08-20T12:11:30;35.50;1.00
7325;DHT22;3703;48.016;7.802;2023-08-20T12:14:17;35.90;37.60
7325;DHT22;3703;48.016;7.802;2023-08-20T12:17:03;36.40;1.00
7325;DHT22;3703;48.016;7.802;2023-08-20T12:19:51;36.80;1.00
7325;DHT22;3703;48.016;7.802;2023-08-20T12:22:37;37.30;1.00
7325;DHT22;3703;48.016;7.802;2023-08-20T12:25:23;37.20;1.00
7325;DHT22;3703;48.016;7.802;2023-08-20T12:28:09;36.90;1.00
7325;DHT22;3703;48.016;7.802;2023-08-20T12:30:54;37.10;1.00
7325;DHT22;3703;48.016;7.802;2023-08-20T12:33:40;37.40;99.90
7325;DHT22;3703;48.016;7.802;2023-08-20T12:36:27;37.90;99.90
7325;DHT22;3703;48.016;7.802;2023-08-20T12:39:13;38.70;99.90
7325;DHT22;3703;48.016;7.802;2023-08-20T12:41:59;39.40;99.90
7325;DHT22;3703;48.016;7.802;2023-08-20T12:44:45;39.30;99.90
7325;DHT22;3703;48.016;7.802;2023-08-20T12:47:30;40.20;85.20
7325;DHT22;3703;48.016;7.802;2023-08-20T12:50:16;41.00;1.00
7325;DHT22;3703;48.016;7.802;2023-08-20T12:53:03;41.80;1.00
7325;DHT22;3703;48.016;7.802;2023-08-20T12:55:49;42.60;1.00
7325;DHT22;3703;48.016;7.802;2023-08-20T12:58:35;43.30;1.00
7325;DHT22;3703;48.016;7.802;2023-08-20T13:01:21;44.30;1.00
7325;DHT22;3703;48.016;7.802;2023-08-20T13:04:10;40.60;1.00
7325;DHT22;3703;48.016;7.802;2023-08-20T13:06:57;40.60;1.00
7325;DHT22;3703;48.016;7.802;2023-08-20T13:09:45;40.90;1.00
7325;DHT22;3703;48.016;7.802;2023-08-20T13:12:32;41.40;1.00
7325;DHT22;3703;48.016;7.802;2023-08-20T13:15:21;41.80;1.00
7325;DHT22;3703;48.016;7.802;2023-08-20T13:18:09;42.90;1.00
7325;DHT22;3703;48.016;7.802;2023-08-20T13:20:57;43.90;1.00
7325;DHT22;3703;48.016;7.802;2023-08-20T13:23:43;43.50;99.90
7325;DHT22;3703;48.016;7.802;2023-08-20T13:26:31;42.80;99.90
7325;DHT22;3703;48.016;7.802;2023-08-20T13:29:16;43.40;99.90
7325;DHT22;3703;48.016;7.802;2023-08-20T13:32:02;44.40;99.90
7325;DHT22;3703;48.016;7.802;2023-08-20T13:34:49;43.50;99.90
7325;DHT22;3703;48.016;7.802;2023-08-20T13:37:35;40.90;99.90
7325;DHT22;3703;48.016;7.802;2023-08-20T13:40:20;39.90;99.90
7325;DHT22;3703;48.016;7.802;2023-08-20T13:43:08;38.20;99.90
7325;DHT22;3703;48.016;7.802;2023-08-20T13:45:54;37.90;1.00
7325;DHT22;3703;48.016;7.802;2023-08-20T13:48:39;38.00;1.00
7325;DHT22;3703;48.016;7.802;2023-08-20T13:55:07;39.30;1.00
7325;DHT22;3703;48.016;7.802;2023-08-20T13:57:54;39.50;1.00
7325;DHT22;3703;48.016;7.802;2023-08-20T14:00:41;40.10;1.00
7325;DHT22;3703;48.016;7.802;2023-08-20T14:03:27;40.80;1.00
7325;DHT22;3703;48.016;7.802;2023-08-20T14:06:13;40.10;1.00
7325;DHT22;3703;48.016;7.802;2023-08-20T14:08:58;39.90;1.00
7325;DHT22;3703;48.016;7.802;2023-08-20T14:11:45;40.10;1.00
7325;DHT22;3703;48.016;7.802;2023-08-20T14:14:31;39.90;1.00
7325;DHT22;3703;48.016;7.802;2023-08-20T14:17:18;39.30;1.00
7325;DHT22;3703;48.016;7.802;2023-08-20T14:20:05;38.80;1.00
7325;DHT22;3703;48.016;7.802;2023-08-20T14:22:52;38.60;1.00
7325;DHT22;3703;48.016;7.802;2023-08-20T14:25:38;38.60;1.00
7325;DHT22;3703;48.016;7.802;2023-08-20T14:28:25;38.50;1.00
7325;DHT22;3703;48.016;7.802;2023-08-20T14:31:10;37.60;1.00
7325;DHT22;3703;48.016;7.802;2023-08-20T14:33:58;37.30;1.00
7325;DHT22;3703;48.016;7.802;2023-08-20T14:36:44;37.40;1.00
7325;DHT22;3703;48.016;7.802;2023-08-20T14:39:29;37.40;1.00
7325;DHT22;3703;48.016;7.802;2023-08-20T14:42:15;37.00;1.00
7325;DHT22;3703;48.016;7.802;2023-08-20T14:45:01;36.80;1.00
7325;DHT22;3703;48.016;7.802;2023-08-20T14:47:47;36.60;1.00
7325;DHT22;3703;48.016;7.802;2023-08-20T14:50:35;36.30;1.00
7325;DHT22;3703;48.016;7.802;2023-08-20T14:53:21;36.20;1.00
7325;DHT22;3703;48.016;7.802;2023-08-20T14:56:06;36.30;1.00
7325;DHT22;3703;48.016;7.802;2023-08-20T14:58:52;36.40;1.00
7325;DHT22;3703;48.016;7.802;2023-08-20T15:01:38;36.30;1.00
7325;DHT22;3703;48.016;7.802;2023-08-20T15:04:23;36.00;1.00
7325;DHT22;3703;48.016;7.802;2023-08-20T15:07:11;36.20;1.00
7325;DHT22;3703;48.016;7.802;2023-08-20T15:09:57;35.90;1.00
7325;DHT22;3703;48.016;7.802;2023-08-20T15:12:42;35.70;1.00
7325;DHT22;3703;48.016;7.802;2023-08-20T15:15:28;36.00;3.60
7325;DHT22;3703;48.016;7.802;2023-08-20T15:18:14;35.90;1.00
7325;DHT22;3703;48.016;7.802;2023-08-20T15:21:00;35.60;7.20
7325;DHT22;3703;48.016;7.802;2023-08-20T15:23:48;35.50;14.20
7325;DHT22;3703;48.016;7.802;2023-08-20T15:26:33;35.30;27.80
7325;DHT22;3703;48.016;7.802;2023-08-20T15:29:19;35.30;50.40
7325;DHT22;3703;48.016;7.802;2023-08-20T15:32:05;35.20;88.30
7325;DHT22;3703;48.016;7.802;2023-08-20T15:34:51;35.10;80.80
7325;DHT22;3703;48.016;7.802;2023-08-20T15:37:37;35.30;99.90
7325;DHT22;3703;48.016;7.802;2023-08-20T15:40:24;35.30;99.90
7325;DHT22;3703;48.016;7.802;2023-08-20T15:43:10;35.30;99.90
7325;DHT22;3703;48.016;7.802;2023-08-20T15:45:56;35.80;99.90
7325;DHT22;3703;48.016;7.802;2023-08-20T15:48:42;35.10;99.90
7325;DHT22;3703;48.016;7.802;2023-08-20T15:51:28;35.30;99.90
7325;DHT22;3703;48.016;7.802;2023-08-20T15:54:13;34.80;99.90
7325;DHT22;3703;48.016;7.802;2023-08-20T15:57:00;34.80;99.90
7325;DHT22;3703;48.016;7.802;2023-08-20T15:59:46;34.80;99.90
7325;DHT22;3703;48.016;7.802;2023-08-20T16:02:32;34.90;99.90
7325;DHT22;3703;48.016;7.802;2023-08-20T16:05:20;35.00;99.90
7325;DHT22;3703;48.016;7.802;2023-08-20T16:08:06;35.10;99.90
7325;DHT22;3703;48.016;7.802;2023-08-20T16:10:57;35.00;99.90
7325;DHT22;3703;48.016;7.802;2023-08-20T16:13:45;35.00;99.90
7325;DHT22;3703;48.016;7.802;2023-08-20T16:16:31;34.90;99.90
7325;DHT22;3703;48.016;7.802;2023-08-20T16:19:17;34.90;99.90
7325;DHT22;3703;48.016;7.802;2023-08-20T16:22:03;34.80;99.90
7325;DHT22;3703;48.016;7.802;2023-08-20T16:24:49;34.90;99.90
7325;DHT22;3703;48.016;7.802;2023-08-20T16:27:35;34.90;99.90
7325;DHT22;3703;48.016;7.802;2023-08-20T16:30:22;34.60;99.90
7325;DHT22;3703;48.016;7.802;2023-08-20T16:33:08;34.50;99.90
7325;DHT22;3703;48.016;7.802;2023-08-20T16:35:54;34.20;99.90
7325;DHT22;3703;48.016;7.802;2023-08-20T16:38:40;34.00;99.90
7325;DHT22;3703;48.016;7.802;2023-08-20T16:41:26;34.00;99.90
7325;DHT22;3703;48.016;7.802;2023-08-20T16:44:11;34.00;99.90
7325;DHT22;3703;48.016;7.802;2023-08-20T16:47:00;34.00;99.90
7325;DHT22;3703;48.016;7.802;2023-08-20T16:49:46;33.80;99.90
7325;DHT22;3703;48.016;7.802;2023-08-20T16:52:31;33.60;99.90
7325;DHT22;3703;48.016;7.802;2023-08-20T16:55:17;33.50;99.90
7325;DHT22;3703;48.016;7.802;2023-08-20T16:58:03;33.60;99.90
7325;DHT22;3703;48.016;7.802;2023-08-20T17:00:49;33.60;1.00
7325;DHT22;3703;48.016;7.802;2023-08-20T17:03:36;33.50;1.00
7325;DHT22;3703;48.016;7.802;2023-08-20T17:06:22;33.60;1.00
7325;DHT22;3703;48.016;7.802;2023-08-20T17:09:08;33.60;1.00
7325;DHT22;3703;48.016;7.802;2023-08-20T17:11:54;33.50;1.00
7325;DHT22;3703;48.016;7.802;2023-08-20T17:14:40;33.40;99.90
7325;DHT22;3703;48.016;7.802;2023-08-20T17:17:28;33.40;99.90
7325;DHT22;3703;48.016;7.802;2023-08-20T17:20:16;33.30;1.00
7325;DHT22;3703;48.016;7.802;2023-08-20T17:23:02;33.00;1.00
7325;DHT22;3703;48.016;7.802;2023-08-20T17:25:48;33.00;1.00
7325;DHT22;3703;48.016;7.802;2023-08-20T17:28:34;32.90;1.00
7325;DHT22;3703;48.016;7.802;2023-08-20T17:31:20;32.90;1.00
7325;DHT22;3703;48.016;7.802;2023-08-20T17:34:06;33.00;1.00
7325;DHT22;3703;48.016;7.802;2023-08-20T17:36:54;32.90;1.00
7325;DHT22;3703;48.016;7.802;2023-08-20T17:39:41;33.00;1.00
7325;DHT22;3703;48.016;7.802;2023-08-20T17:42:27;32.90;1.00
7325;DHT22;3703;48.016;7.802;2023-08-20T17:45:13;32.80;1.00
7325;DHT22;3703;48.016;7.802;2023-08-20T17:47:58;32.80;1.00
7325;DHT22;3703;48.016;7.802;2023-08-20T17:50:45;32.80;1.00
7325;DHT22;3703;48.016;7.802;2023-08-20T17:53:33;32.80;1.00
7325;DHT22;3703;48.016;7.802;2023-08-20T17:56:19;32.80;1.00
7325;DHT22;3703;48.016;7.802;2023-08-20T17:59:05;32.70;9.70
7325;DHT22;3703;48.016;7.802;2023-08-20T18:01:51;32.60;84.50
7325;DHT22;3703;48.016;7.802;2023-08-20T18:04:36;32.60;99.90
7325;DHT22;3703;48.016;7.802;2023-08-20T18:07:22;32.60;99.90
7325;DHT22;3703;48.016;7.802;2023-08-20T18:10:09;32.00;99.90
7325;DHT22;3703;48.016;7.802;2023-08-20T18:12:55;32.40;99.90
7325;DHT22;3703;48.016;7.802;2023-08-20T18:15:41;32.30;99.90
7325;DHT22;3703;48.016;7.802;2023-08-20T18:18:27;32.30;99.90
7325;DHT22;3703;48.016;7.802;2023-08-20T18:21:13;32.20;99.90
7325;DHT22;3703;48.016;7.802;2023-08-20T18:24:00;32.10;1.00
7325;DHT22;3703;48.016;7.802;2023-08-20T18:26:47;32.00;1.00
7325;DHT22;3703;48.016;7.802;2023-08-20T18:29:33;31.90;1.00